Main page
METAR-TAF:

METAR-TAF

Airports :

Kilimanjaro International Airport

Kilimanjaro, Tanzania

latitude: 03-25S, longitude: 037-04E, elevation: 891 m

Current weather observation

The report was made 1 hour and 57 minutes ago, at 17:00 UTC
Wind 16 kt from the East/Southeast
Temperature 29°C
Humidity 35%
Pressure 1013 hPa
Visibility 10 km or more
Few clouds at a height of 3200 ft

METAR: HTKJ 231700Z 12016KT 9999 FEW032 29/12 Q1013 NOSIG

Time: 21:57 (18:57 UTC)

Forecast

The report was made 7 hours and 57 minutes ago, at 11:00 UTC
Forecast valid from 23 at 12 UTC to 24 at 12 UTC
Wind 10 kt from the East
Visibility 10 km or more
Scattered clouds at a height of 3400 ft

TAF: HTKJ 231100Z 2312/2412 10010KT 9999 SCT034

Weather observations and forecasts of more than 4000 airports (METAR and TAF reports).

The available stations are represented by yellow and red dots on the map.

Hover mouse over dot to see the name of the station.

Then click to see weather observations and forecasts.

To change the map : click on the green buttons with a black cross to zoom in, on the green button with a dash to zoom out, or on the green arrows for adjacent maps.


METAR-TAF: